sensor_id;sensor_type;location;lat;lon;timestamp;P1;durP1;ratioP1;P2;durP2;ratioP2
17390;SDS011;8813;54.444;18.446;2023-04-25T00:00:46;2.10;;;2.10;;
17390;SDS011;8813;54.444;18.446;2023-04-25T00:03:14;1.90;;;1.90;;
17390;SDS011;8813;54.444;18.446;2023-04-25T00:05:41;2.10;;;2.10;;
17390;SDS011;8813;54.444;18.446;2023-04-25T00:08:09;1.90;;;1.90;;
17390;SDS011;8813;54.444;18.446;2023-04-25T00:10:36;2.42;;;2.42;;
17390;SDS011;8813;54.444;18.446;2023-04-25T00:13:03;2.17;;;2.17;;
17390;SDS011;8813;54.444;18.446;2023-04-25T00:15:30;1.88;;;1.88;;
17390;SDS011;8813;54.444;18.446;2023-04-25T00:17:57;2.00;;;2.00;;
17390;SDS011;8813;54.444;18.446;2023-04-25T00:20:23;1.70;;;1.70;;
17390;SDS011;8813;54.444;18.446;2023-04-25T00:22:51;1.88;;;1.88;;
17390;SDS011;8813;54.444;18.446;2023-04-25T00:25:20;1.80;;;1.80;;
17390;SDS011;8813;54.444;18.446;2023-04-25T00:27:47;2.20;;;2.20;;
17390;SDS011;8813;54.444;18.446;2023-04-25T00:30:14;2.00;;;2.00;;
17390;SDS011;8813;54.444;18.446;2023-04-25T00:32:41;1.90;;;1.90;;
17390;SDS011;8813;54.444;18.446;2023-04-25T00:35:08;2.83;;;2.72;;
17390;SDS011;8813;54.444;18.446;2023-04-25T00:37:36;1.80;;;1.80;;
17390;SDS011;8813;54.444;18.446;2023-04-25T00:40:04;1.70;;;1.70;;
17390;SDS011;8813;54.444;18.446;2023-04-25T00:42:34;2.10;;;2.10;;
17390;SDS011;8813;54.444;18.446;2023-04-25T00:45:01;2.00;;;2.00;;
17390;SDS011;8813;54.444;18.446;2023-04-25T00:47:32;2.05;;;2.05;;
17390;SDS011;8813;54.444;18.446;2023-04-25T00:49:59;6.88;;;6.57;;
17390;SDS011;8813;54.444;18.446;2023-04-25T00:52:26;1.70;;;1.70;;
17390;SDS011;8813;54.444;18.446;2023-04-25T00:54:53;1.50;;;1.50;;
17390;SDS011;8813;54.444;18.446;2023-04-25T00:57:20;1.60;;;1.60;;
17390;SDS011;8813;54.444;18.446;2023-04-25T00:59:48;1.90;;;1.90;;
17390;SDS011;8813;54.444;18.446;2023-04-25T01:02:17;2.05;;;2.03;;
17390;SDS011;8813;54.444;18.446;2023-04-25T01:04:45;2.00;;;2.00;;
17390;SDS011;8813;54.444;18.446;2023-04-25T01:07:13;1.90;;;1.90;;
17390;SDS011;8813;54.444;18.446;2023-04-25T01:09:40;2.03;;;2.03;;
17390;SDS011;8813;54.444;18.446;2023-04-25T01:12:07;2.60;;;2.60;;
17390;SDS011;8813;54.444;18.446;2023-04-25T01:14:34;1.75;;;1.75;;
17390;SDS011;8813;54.444;18.446;2023-04-25T01:17:02;2.15;;;2.15;;
17390;SDS011;8813;54.444;18.446;2023-04-25T01:19:30;2.10;;;2.10;;
17390;SDS011;8813;54.444;18.446;2023-04-25T01:21:58;2.60;;;2.60;;
17390;SDS011;8813;54.444;18.446;2023-04-25T01:24:25;2.30;;;2.30;;
17390;SDS011;8813;54.444;18.446;2023-04-25T01:26:53;2.30;;;2.30;;
17390;SDS011;8813;54.444;18.446;2023-04-25T01:29:21;2.00;;;2.00;;
17390;SDS011;8813;54.444;18.446;2023-04-25T01:31:49;1.90;;;1.90;;
17390;SDS011;8813;54.444;18.446;2023-04-25T01:34:17;1.90;;;1.90;;
17390;SDS011;8813;54.444;18.446;2023-04-25T01:36:44;1.98;;;1.98;;
17390;SDS011;8813;54.444;18.446;2023-04-25T01:39:13;2.40;;;2.40;;
17390;SDS011;8813;54.444;18.446;2023-04-25T01:41:40;2.40;;;2.40;;
17390;SDS011;8813;54.444;18.446;2023-04-25T01:44:07;1.98;;;1.98;;
17390;SDS011;8813;54.444;18.446;2023-04-25T01:46:34;2.03;;;2.03;;
17390;SDS011;8813;54.444;18.446;2023-04-25T01:49:01;6.93;;;2.78;;
17390;SDS011;8813;54.444;18.446;2023-04-25T01:51:28;1.90;;;1.90;;
17390;SDS011;8813;54.444;18.446;2023-04-25T01:53:56;2.13;;;2.13;;
17390;SDS011;8813;54.444;18.446;2023-04-25T01:56:25;2.10;;;2.10;;
17390;SDS011;8813;54.444;18.446;2023-04-25T01:58:57;2.20;;;2.20;;
17390;SDS011;8813;54.444;18.446;2023-04-25T02:01:24;2.15;;;2.15;;
17390;SDS011;8813;54.444;18.446;2023-04-25T02:03:51;2.50;;;2.35;;
17390;SDS011;8813;54.444;18.446;2023-04-25T02:06:17;1.80;;;1.80;;
17390;SDS011;8813;54.444;18.446;2023-04-25T02:08:44;1.98;;;1.98;;
17390;SDS011;8813;54.444;18.446;2023-04-25T02:11:11;1.90;;;1.90;;
17390;SDS011;8813;54.444;18.446;2023-04-25T02:13:39;2.33;;;2.33;;
17390;SDS011;8813;54.444;18.446;2023-04-25T02:16:06;2.33;;;2.33;;
17390;SDS011;8813;54.444;18.446;2023-04-25T02:18:33;2.38;;;2.38;;
17390;SDS011;8813;54.444;18.446;2023-04-25T02:21:02;2.30;;;2.30;;
17390;SDS011;8813;54.444;18.446;2023-04-25T02:23:29;2.70;;;2.70;;
17390;SDS011;8813;54.444;18.446;2023-04-25T02:25:56;1.90;;;1.90;;
17390;SDS011;8813;54.444;18.446;2023-04-25T02:28:23;1.90;;;1.90;;
17390;SDS011;8813;54.444;18.446;2023-04-25T02:30:52;2.30;;;2.20;;
17390;SDS011;8813;54.444;18.446;2023-04-25T02:33:19;2.20;;;2.20;;
17390;SDS011;8813;54.444;18.446;2023-04-25T02:35:46;2.50;;;2.50;;
17390;SDS011;8813;54.444;18.446;2023-04-25T02:38:13;3.35;;;3.25;;
17390;SDS011;8813;54.444;18.446;2023-04-25T02:40:40;2.60;;;2.60;;
17390;SDS011;8813;54.444;18.446;2023-04-25T02:43:07;2.50;;;2.50;;
17390;SDS011;8813;54.444;18.446;2023-04-25T02:45:34;3.13;;;3.03;;
17390;SDS011;8813;54.444;18.446;2023-04-25T02:48:03;2.30;;;2.30;;
17390;SDS011;8813;54.444;18.446;2023-04-25T02:50:30;2.20;;;2.20;;
17390;SDS011;8813;54.444;18.446;2023-04-25T02:52:57;2.30;;;2.30;;
17390;SDS011;8813;54.444;18.446;2023-04-25T02:55:24;2.70;;;2.70;;
17390;SDS011;8813;54.444;18.446;2023-04-25T02:57:51;2.80;;;2.80;;
17390;SDS011;8813;54.444;18.446;2023-04-25T03:00:20;4.43;;;4.22;;
17390;SDS011;8813;54.444;18.446;2023-04-25T03:02:47;2.38;;;2.38;;
17390;SDS011;8813;54.444;18.446;2023-04-25T03:05:16;2.20;;;2.20;;
17390;SDS011;8813;54.444;18.446;2023-04-25T03:07:43;2.53;;;2.53;;
17390;SDS011;8813;54.444;18.446;2023-04-25T03:10:10;2.90;;;2.80;;
17390;SDS011;8813;54.444;18.446;2023-04-25T03:12:37;2.90;;;2.80;;
17390;SDS011;8813;54.444;18.446;2023-04-25T03:15:05;2.70;;;2.70;;
17390;SDS011;8813;54.444;18.446;2023-04-25T03:17:32;2.10;;;2.10;;
17390;SDS011;8813;54.444;18.446;2023-04-25T03:19:59;2.78;;;2.67;;
17390;SDS011;8813;54.444;18.446;2023-04-25T03:22:27;2.25;;;2.15;;
17390;SDS011;8813;54.444;18.446;2023-04-25T03:24:54;2.88;;;2.78;;
17390;SDS011;8813;54.444;18.446;2023-04-25T03:27:21;2.55;;;2.45;;
17390;SDS011;8813;54.444;18.446;2023-04-25T03:29:48;1.80;;;1.80;;
17390;SDS011;8813;54.444;18.446;2023-04-25T03:32:15;2.00;;;1.90;;
17390;SDS011;8813;54.444;18.446;2023-04-25T03:34:42;1.70;;;1.70;;
17390;SDS011;8813;54.444;18.446;2023-04-25T03:37:09;1.77;;;1.77;;
17390;SDS011;8813;54.444;18.446;2023-04-25T03:39:37;1.75;;;1.75;;
17390;SDS011;8813;54.444;18.446;2023-04-25T03:42:04;1.52;;;1.52;;
17390;SDS011;8813;54.444;18.446;2023-04-25T03:44:31;1.80;;;1.80;;
17390;SDS011;8813;54.444;18.446;2023-04-25T03:46:58;1.40;;;1.40;;
17390;SDS011;8813;54.444;18.446;2023-04-25T03:49:25;1.90;;;1.90;;
17390;SDS011;8813;54.444;18.446;2023-04-25T03:51:52;2.22;;;2.22;;
17390;SDS011;8813;54.444;18.446;2023-04-25T03:54:18;1.80;;;1.80;;
17390;SDS011;8813;54.444;18.446;2023-04-25T03:56:47;1.70;;;1.70;;
17390;SDS011;8813;54.444;18.446;2023-04-25T03:59:14;1.60;;;1.60;;
17390;SDS011;8813;54.444;18.446;2023-04-25T04:01:40;1.60;;;1.60;;
17390;SDS011;8813;54.444;18.446;2023-04-25T04:04:07;1.45;;;1.45;;
17390;SDS011;8813;54.444;18.446;2023-04-25T04:06:34;1.60;;;1.60;;
17390;SDS011;8813;54.444;18.446;2023-04-25T04:09:02;5.85;;;3.45;;
17390;SDS011;8813;54.444;18.446;2023-04-25T04:11:29;1.75;;;1.70;;
17390;SDS011;8813;54.444;18.446;2023-04-25T04:13:58;1.67;;;1.67;;
17390;SDS011;8813;54.444;18.446;2023-04-25T04:16:25;2.55;;;2.45;;
17390;SDS011;8813;54.444;18.446;2023-04-25T04:18:52;2.45;;;2.35;;
17390;SDS011;8813;54.444;18.446;2023-04-25T04:21:19;6.32;;;3.67;;
17390;SDS011;8813;54.444;18.446;2023-04-25T04:23:46;1.70;;;1.70;;
17390;SDS011;8813;54.444;18.446;2023-04-25T04:26:13;1.80;;;1.80;;
17390;SDS011;8813;54.444;18.446;2023-04-25T04:28:41;2.03;;;2.03;;
17390;SDS011;8813;54.444;18.446;2023-04-25T04:31:10;1.80;;;1.80;;
17390;SDS011;8813;54.444;18.446;2023-04-25T04:33:37;2.72;;;2.53;;
17390;SDS011;8813;54.444;18.446;2023-04-25T04:36:05;1.85;;;1.85;;
17390;SDS011;8813;54.444;18.446;2023-04-25T04:38:32;2.03;;;2.03;;
17390;SDS011;8813;54.444;18.446;2023-04-25T04:41:00;2.08;;;2.08;;
17390;SDS011;8813;54.444;18.446;2023-04-25T04:43:27;2.25;;;2.15;;
17390;SDS011;8813;54.444;18.446;2023-04-25T04:45:54;1.75;;;1.75;;
17390;SDS011;8813;54.444;18.446;2023-04-25T04:48:24;1.50;;;1.50;;
17390;SDS011;8813;54.444;18.446;2023-04-25T04:50:51;1.30;;;1.30;;
17390;SDS011;8813;54.444;18.446;2023-04-25T04:53:18;1.40;;;1.40;;
17390;SDS011;8813;54.444;18.446;2023-04-25T04:55:45;2.15;;;2.05;;
17390;SDS011;8813;54.444;18.446;2023-04-25T04:58:12;2.97;;;2.88;;
17390;SDS011;8813;54.444;18.446;2023-04-25T05:00:39;3.63;;;2.92;;
17390;SDS011;8813;54.444;18.446;2023-04-25T05:03:06;1.50;;;1.50;;
17390;SDS011;8813;54.444;18.446;2023-04-25T05:05:34;2.25;;;2.15;;
17390;SDS011;8813;54.444;18.446;2023-04-25T05:08:05;2.63;;;2.53;;
17390;SDS011;8813;54.444;18.446;2023-04-25T05:10:32;2.85;;;2.75;;
17390;SDS011;8813;54.444;18.446;2023-04-25T05:12:59;2.25;;;2.15;;
17390;SDS011;8813;54.444;18.446;2023-04-25T05:15:26;2.30;;;2.22;;
17390;SDS011;8813;54.444;18.446;2023-04-25T05:17:53;2.65;;;2.45;;
17390;SDS011;8813;54.444;18.446;2023-04-25T05:20:20;3.10;;;3.00;;
17390;SDS011;8813;54.444;18.446;2023-04-25T05:22:49;1.88;;;1.88;;
17390;SDS011;8813;54.444;18.446;2023-04-25T05:25:16;2.53;;;2.45;;
17390;SDS011;8813;54.444;18.446;2023-04-25T05:27:43;2.22;;;2.13;;
17390;SDS011;8813;54.444;18.446;2023-04-25T05:30:10;2.45;;;2.45;;
17390;SDS011;8813;54.444;18.446;2023-04-25T05:32:37;2.10;;;2.10;;
17390;SDS011;8813;54.444;18.446;2023-04-25T05:35:05;2.80;;;2.70;;
17390;SDS011;8813;54.444;18.446;2023-04-25T05:37:33;2.67;;;2.50;;
17390;SDS011;8813;54.444;18.446;2023-04-25T05:40:02;2.53;;;2.42;;
17390;SDS011;8813;54.444;18.446;2023-04-25T05:42:31;2.00;;;2.00;;
17390;SDS011;8813;54.444;18.446;2023-04-25T05:44:58;1.65;;;1.65;;
17390;SDS011;8813;54.444;18.446;2023-04-25T05:47:25;1.92;;;1.92;;
17390;SDS011;8813;54.444;18.446;2023-04-25T05:49:53;1.60;;;1.60;;
17390;SDS011;8813;54.444;18.446;2023-04-25T05:52:20;7.35;;;2.20;;
17390;SDS011;8813;54.444;18.446;2023-04-25T05:54:47;2.83;;;2.65;;
17390;SDS011;8813;54.444;18.446;2023-04-25T05:57:22;2.58;;;1.40;;
17390;SDS011;8813;54.444;18.446;2023-04-25T05:59:50;4.88;;;2.35;;
17390;SDS011;8813;54.444;18.446;2023-04-25T06:02:17;1.65;;;1.58;;
17390;SDS011;8813;54.444;18.446;2023-04-25T06:04:44;1.63;;;1.63;;
17390;SDS011;8813;54.444;18.446;2023-04-25T06:07:11;1.20;;;1.20;;
17390;SDS011;8813;54.444;18.446;2023-04-25T06:09:38;1.60;;;1.60;;
17390;SDS011;8813;54.444;18.446;2023-04-25T06:12:05;1.85;;;1.85;;
17390;SDS011;8813;54.444;18.446;2023-04-25T06:14:34;1.60;;;1.60;;
17390;SDS011;8813;54.444;18.446;2023-04-25T06:17:01;4.97;;;1.80;;
17390;SDS011;8813;54.444;18.446;2023-04-25T06:19:31;3.13;;;2.70;;
17390;SDS011;8813;54.444;18.446;2023-04-25T06:21:58;1.50;;;1.50;;
17390;SDS011;8813;54.444;18.446;2023-04-25T06:24:26;2.00;;;1.95;;
17390;SDS011;8813;54.444;18.446;2023-04-25T06:26:53;1.67;;;1.67;;
17390;SDS011;8813;54.444;18.446;2023-04-25T06:29:20;1.75;;;1.65;;
17390;SDS011;8813;54.444;18.446;2023-04-25T06:31:48;2.53;;;2.20;;
17390;SDS011;8813;54.444;18.446;2023-04-25T06:34:15;2.30;;;2.30;;
17390;SDS011;8813;54.444;18.446;2023-04-25T06:36:42;2.95;;;2.85;;
17390;SDS011;8813;54.444;18.446;2023-04-25T06:39:09;2.55;;;2.45;;
17390;SDS011;8813;54.444;18.446;2023-04-25T06:41:37;3.10;;;2.90;;
17390;SDS011;8813;54.444;18.446;2023-04-25T06:44:04;1.70;;;1.70;;
17390;SDS011;8813;54.444;18.446;2023-04-25T06:46:31;2.05;;;2.05;;
17390;SDS011;8813;54.444;18.446;2023-04-25T06:48:59;1.70;;;1.70;;
17390;SDS011;8813;54.444;18.446;2023-04-25T06:51:26;2.80;;;2.60;;
17390;SDS011;8813;54.444;18.446;2023-04-25T06:53:55;2.50;;;2.25;;
17390;SDS011;8813;54.444;18.446;2023-04-25T06:56:22;2.45;;;2.35;;
17390;SDS011;8813;54.444;18.446;2023-04-25T06:58:49;1.60;;;1.60;;
17390;SDS011;8813;54.444;18.446;2023-04-25T07:01:16;2.30;;;2.20;;
17390;SDS011;8813;54.444;18.446;2023-04-25T07:03:43;2.22;;;2.15;;
17390;SDS011;8813;54.444;18.446;2023-04-25T07:06:11;1.40;;;1.40;;
17390;SDS011;8813;54.444;18.446;2023-04-25T07:08:38;1.58;;;1.45;;
17390;SDS011;8813;54.444;18.446;2023-04-25T07:11:05;1.38;;;1.38;;
17390;SDS011;8813;54.444;18.446;2023-04-25T07:13:32;1.52;;;1.52;;
17390;SDS011;8813;54.444;18.446;2023-04-25T07:16:00;1.50;;;1.50;;
17390;SDS011;8813;54.444;18.446;2023-04-25T07:18:27;1.60;;;1.60;;
17390;SDS011;8813;54.444;18.446;2023-04-25T07:20:53;1.30;;;1.30;;
17390;SDS011;8813;54.444;18.446;2023-04-25T07:23:22;2.50;;;2.40;;
17390;SDS011;8813;54.444;18.446;2023-04-25T07:25:49;2.72;;;2.63;;
17390;SDS011;8813;54.444;18.446;2023-04-25T07:28:16;2.33;;;2.22;;
17390;SDS011;8813;54.444;18.446;2023-04-25T07:30:43;1.70;;;1.70;;
17390;SDS011;8813;54.444;18.446;2023-04-25T07:33:10;1.60;;;1.60;;
17390;SDS011;8813;54.444;18.446;2023-04-25T07:35:37;1.55;;;1.55;;
17390;SDS011;8813;54.444;18.446;2023-04-25T07:38:04;2.10;;;2.00;;
17390;SDS011;8813;54.444;18.446;2023-04-25T07:40:34;1.90;;;1.77;;
17390;SDS011;8813;54.444;18.446;2023-04-25T07:43:01;1.60;;;1.60;;
17390;SDS011;8813;54.444;18.446;2023-04-25T07:45:28;2.05;;;1.95;;
17390;SDS011;8813;54.444;18.446;2023-04-25T07:47:55;1.75;;;1.73;;
17390;SDS011;8813;54.444;18.446;2023-04-25T07:50:22;1.20;;;1.20;;
17390;SDS011;8813;54.444;18.446;2023-04-25T07:52:49;1.40;;;1.40;;
17390;SDS011;8813;54.444;18.446;2023-04-25T07:55:16;1.40;;;1.40;;
17390;SDS011;8813;54.444;18.446;2023-04-25T07:57:45;8.45;;;2.65;;
17390;SDS011;8813;54.444;18.446;2023-04-25T08:00:12;1.40;;;1.40;;
17390;SDS011;8813;54.444;18.446;2023-04-25T08:02:40;1.23;;;1.23;;
17390;SDS011;8813;54.444;18.446;2023-04-25T08:05:07;1.27;;;1.27;;
17390;SDS011;8813;54.444;18.446;2023-04-25T08:07:37;1.33;;;1.33;;
17390;SDS011;8813;54.444;18.446;2023-04-25T08:10:04;1.17;;;1.17;;
17390;SDS011;8813;54.444;18.446;2023-04-25T08:12:32;1.60;;;1.50;;
17390;SDS011;8813;54.444;18.446;2023-04-25T08:15:00;1.30;;;1.30;;
17390;SDS011;8813;54.444;18.446;2023-04-25T08:17:27;1.67;;;1.67;;
17390;SDS011;8813;54.444;18.446;2023-04-25T08:19:54;1.20;;;1.20;;
17390;SDS011;8813;54.444;18.446;2023-04-25T08:22:22;1.30;;;1.30;;
17390;SDS011;8813;54.444;18.446;2023-04-25T08:24:49;9.70;;;2.67;;
17390;SDS011;8813;54.444;18.446;2023-04-25T08:27:16;1.17;;;1.17;;
17390;SDS011;8813;54.444;18.446;2023-04-25T08:29:43;1.40;;;1.40;;
17390;SDS011;8813;54.444;18.446;2023-04-25T08:32:12;1.35;;;1.35;;
17390;SDS011;8813;54.444;18.446;2023-04-25T08:34:39;1.42;;;1.42;;
17390;SDS011;8813;54.444;18.446;2023-04-25T08:37:07;3.13;;;2.58;;
17390;SDS011;8813;54.444;18.446;2023-04-25T08:39:34;1.20;;;1.20;;
17390;SDS011;8813;54.444;18.446;2023-04-25T08:42:02;1.27;;;1.27;;
17390;SDS011;8813;54.444;18.446;2023-04-25T08:44:30;1.20;;;1.20;;
17390;SDS011;8813;54.444;18.446;2023-04-25T08:46:57;0.90;;;0.90;;
17390;SDS011;8813;54.444;18.446;2023-04-25T08:49:25;1.48;;;1.48;;
17390;SDS011;8813;54.444;18.446;2023-04-25T08:51:52;1.20;;;1.20;;
17390;SDS011;8813;54.444;18.446;2023-04-25T08:54:19;1.33;;;1.33;;
17390;SDS011;8813;54.444;18.446;2023-04-25T08:56:48;1.00;;;1.00;;
17390;SDS011;8813;54.444;18.446;2023-04-25T08:59:17;1.10;;;1.10;;
17390;SDS011;8813;54.444;18.446;2023-04-25T09:01:44;1.38;;;1.38;;
17390;SDS011;8813;54.444;18.446;2023-04-25T09:04:11;1.27;;;1.27;;
17390;SDS011;8813;54.444;18.446;2023-04-25T09:06:39;1.10;;;1.10;;
17390;SDS011;8813;54.444;18.446;2023-04-25T09:09:07;1.20;;;1.20;;
17390;SDS011;8813;54.444;18.446;2023-04-25T09:11:36;1.30;;;1.30;;
17390;SDS011;8813;54.444;18.446;2023-04-25T09:14:12;1.20;;;1.20;;
17390;SDS011;8813;54.444;18.446;2023-04-25T09:16:59;0.98;;;0.98;;
17390;SDS011;8813;54.444;18.446;2023-04-25T09:19:29;1.38;;;1.38;;
17390;SDS011;8813;54.444;18.446;2023-04-25T09:21:59;1.67;;;1.58;;
17390;SDS011;8813;54.444;18.446;2023-04-25T09:24:34;1.10;;;1.10;;
17390;SDS011;8813;54.444;18.446;2023-04-25T09:27:03;1.20;;;1.20;;
17390;SDS011;8813;54.444;18.446;2023-04-25T09:29:31;1.10;;;1.10;;
17390;SDS011;8813;54.444;18.446;2023-04-25T09:32:11;0.90;;;0.90;;
17390;SDS011;8813;54.444;18.446;2023-04-25T09:34:46;1.00;;;1.00;;
17390;SDS011;8813;54.444;18.446;2023-04-25T09:37:19;1.00;;;1.00;;
17390;SDS011;8813;54.444;18.446;2023-04-25T09:39:47;1.00;;;1.00;;
17390;SDS011;8813;54.444;18.446;2023-04-25T09:42:15;1.10;;;1.10;;
17390;SDS011;8813;54.444;18.446;2023-04-25T09:44:43;1.00;;;1.00;;
17390;SDS011;8813;54.444;18.446;2023-04-25T09:47:10;1.00;;;1.00;;
17390;SDS011;8813;54.444;18.446;2023-04-25T09:49:39;1.10;;;1.10;;
17390;SDS011;8813;54.444;18.446;2023-04-25T09:52:07;1.20;;;1.20;;
17390;SDS011;8813;54.444;18.446;2023-04-25T09:54:36;1.00;;;1.00;;
17390;SDS011;8813;54.444;18.446;2023-04-25T09:57:04;0.80;;;0.80;;
17390;SDS011;8813;54.444;18.446;2023-04-25T09:59:37;0.80;;;0.80;;
17390;SDS011;8813;54.444;18.446;2023-04-25T10:02:06;1.05;;;1.05;;
17390;SDS011;8813;54.444;18.446;2023-04-25T10:04:34;1.10;;;1.10;;
17390;SDS011;8813;54.444;18.446;2023-04-25T10:07:02;1.00;;;1.00;;
17390;SDS011;8813;54.444;18.446;2023-04-25T10:09:30;1.00;;;1.00;;
17390;SDS011;8813;54.444;18.446;2023-04-25T10:12:00;0.80;;;0.80;;
17390;SDS011;8813;54.444;18.446;2023-04-25T10:14:28;0.80;;;0.80;;
17390;SDS011;8813;54.444;18.446;2023-04-25T10:16:56;1.00;;;1.00;;
17390;SDS011;8813;54.444;18.446;2023-04-25T10:19:24;0.90;;;0.90;;
17390;SDS011;8813;54.444;18.446;2023-04-25T10:21:51;1.00;;;1.00;;
17390;SDS011;8813;54.444;18.446;2023-04-25T10:24:20;1.10;;;1.10;;
17390;SDS011;8813;54.444;18.446;2023-04-25T10:26:47;0.90;;;0.90;;
17390;SDS011;8813;54.444;18.446;2023-04-25T10:29:22;0.80;;;0.80;;
17390;SDS011;8813;54.444;18.446;2023-04-25T10:31:50;1.00;;;1.00;;
17390;SDS011;8813;54.444;18.446;2023-04-25T10:34:16;1.00;;;1.00;;
17390;SDS011;8813;54.444;18.446;2023-04-25T10:36:46;1.48;;;1.25;;
17390;SDS011;8813;54.444;18.446;2023-04-25T10:39:19;0.90;;;0.90;;
17390;SDS011;8813;54.444;18.446;2023-04-25T10:41:48;0.90;;;0.90;;
17390;SDS011;8813;54.444;18.446;2023-04-25T10:44:19;1.13;;;1.13;;
17390;SDS011;8813;54.444;18.446;2023-04-25T10:46:48;1.08;;;1.08;;
17390;SDS011;8813;54.444;18.446;2023-04-25T10:49:28;1.27;;;1.27;;
17390;SDS011;8813;54.444;18.446;2023-04-25T10:52:15;1.23;;;1.23;;
17390;SDS011;8813;54.444;18.446;2023-04-25T10:54:46;1.50;;;1.40;;
17390;SDS011;8813;54.444;18.446;2023-04-25T10:57:32;0.80;;;0.80;;
17390;SDS011;8813;54.444;18.446;2023-04-25T11:00:09;1.10;;;1.10;;
17390;SDS011;8813;54.444;18.446;2023-04-25T11:02:40;1.00;;;1.00;;
17390;SDS011;8813;54.444;18.446;2023-04-25T11:05:10;1.10;;;1.10;;
17390;SDS011;8813;54.444;18.446;2023-04-25T11:07:38;1.10;;;1.10;;
17390;SDS011;8813;54.444;18.446;2023-04-25T11:10:09;1.00;;;1.00;;
17390;SDS011;8813;54.444;18.446;2023-04-25T11:12:35;1.75;;;1.55;;
17390;SDS011;8813;54.444;18.446;2023-04-25T11:15:03;1.00;;;1.00;;
17390;SDS011;8813;54.444;18.446;2023-04-25T11:17:32;1.00;;;1.00;;
17390;SDS011;8813;54.444;18.446;2023-04-25T11:19:59;1.20;;;1.20;;
17390;SDS011;8813;54.444;18.446;2023-04-25T11:22:29;1.27;;;1.27;;
17390;SDS011;8813;54.444;18.446;2023-04-25T11:24:57;1.00;;;1.00;;
17390;SDS011;8813;54.444;18.446;2023-04-25T11:27:24;1.00;;;1.00;;
17390;SDS011;8813;54.444;18.446;2023-04-25T11:29:51;1.15;;;1.15;;
17390;SDS011;8813;54.444;18.446;2023-04-25T11:32:18;1.25;;;1.25;;
17390;SDS011;8813;54.444;18.446;2023-04-25T11:34:47;1.08;;;1.08;;
17390;SDS011;8813;54.444;18.446;2023-04-25T11:37:15;1.02;;;1.02;;
17390;SDS011;8813;54.444;18.446;2023-04-25T11:39:42;1.00;;;1.00;;
17390;SDS011;8813;54.444;18.446;2023-04-25T11:42:11;0.90;;;0.90;;
17390;SDS011;8813;54.444;18.446;2023-04-25T11:44:39;5.97;;;1.85;;
17390;SDS011;8813;54.444;18.446;2023-04-25T11:47:06;1.10;;;1.10;;
17390;SDS011;8813;54.444;18.446;2023-04-25T11:49:33;0.80;;;0.80;;
17390;SDS011;8813;54.444;18.446;2023-04-25T11:52:02;1.20;;;1.20;;
17390;SDS011;8813;54.444;18.446;2023-04-25T11:54:29;0.90;;;0.90;;
17390;SDS011;8813;54.444;18.446;2023-04-25T11:56:56;0.90;;;0.90;;
17390;SDS011;8813;54.444;18.446;2023-04-25T11:59:23;0.98;;;0.98;;
17390;SDS011;8813;54.444;18.446;2023-04-25T12:01:51;0.80;;;0.80;;
17390;SDS011;8813;54.444;18.446;2023-04-25T12:04:19;1.05;;;1.05;;
17390;SDS011;8813;54.444;18.446;2023-04-25T12:06:47;1.10;;;1.10;;
17390;SDS011;8813;54.444;18.446;2023-04-25T12:09:17;0.80;;;0.80;;
17390;SDS011;8813;54.444;18.446;2023-04-25T12:11:46;1.08;;;1.08;;
17390;SDS011;8813;54.444;18.446;2023-04-25T12:14:20;0.95;;;0.95;;
17390;SDS011;8813;54.444;18.446;2023-04-25T12:16:49;0.90;;;0.90;;
17390;SDS011;8813;54.444;18.446;2023-04-25T12:19:18;1.00;;;1.00;;
17390;SDS011;8813;54.444;18.446;2023-04-25T12:21:46;1.00;;;1.00;;
17390;SDS011;8813;54.444;18.446;2023-04-25T12:24:14;1.00;;;1.00;;
17390;SDS011;8813;54.444;18.446;2023-04-25T12:26:50;0.95;;;0.95;;
17390;SDS011;8813;54.444;18.446;2023-04-25T12:29:18;1.27;;;1.27;;
17390;SDS011;8813;54.444;18.446;2023-04-25T12:31:46;1.38;;;1.38;;
17390;SDS011;8813;54.444;18.446;2023-04-25T12:34:13;1.20;;;1.20;;
17390;SDS011;8813;54.444;18.446;2023-04-25T12:36:41;1.20;;;1.20;;
17390;SDS011;8813;54.444;18.446;2023-04-25T12:39:08;1.10;;;1.10;;
17390;SDS011;8813;54.444;18.446;2023-04-25T12:41:35;1.10;;;1.10;;
17390;SDS011;8813;54.444;18.446;2023-04-25T12:44:04;1.20;;;1.20;;
17390;SDS011;8813;54.444;18.446;2023-04-25T12:46:31;3.35;;;3.25;;
17390;SDS011;8813;54.444;18.446;2023-04-25T12:48:57;1.00;;;1.00;;
17390;SDS011;8813;54.444;18.446;2023-04-25T12:51:25;0.90;;;0.90;;
17390;SDS011;8813;54.444;18.446;2023-04-25T12:53:53;1.05;;;1.05;;
17390;SDS011;8813;54.444;18.446;2023-04-25T12:56:20;0.90;;;0.90;;
17390;SDS011;8813;54.444;18.446;2023-04-25T12:58:46;1.63;;;1.63;;
17390;SDS011;8813;54.444;18.446;2023-04-25T13:01:15;1.00;;;1.00;;
17390;SDS011;8813;54.444;18.446;2023-04-25T13:03:42;1.20;;;1.20;;
17390;SDS011;8813;54.444;18.446;2023-04-25T13:06:09;1.13;;;1.13;;
17390;SDS011;8813;54.444;18.446;2023-04-25T13:08:38;0.90;;;0.90;;
17390;SDS011;8813;54.444;18.446;2023-04-25T13:11:05;2.28;;;2.13;;
17390;SDS011;8813;54.444;18.446;2023-04-25T13:13:32;1.30;;;1.30;;
17390;SDS011;8813;54.444;18.446;2023-04-25T13:16:00;0.80;;;0.80;;
17390;SDS011;8813;54.444;18.446;2023-04-25T13:18:28;0.90;;;0.90;;
17390;SDS011;8813;54.444;18.446;2023-04-25T13:20:55;0.90;;;0.90;;
17390;SDS011;8813;54.444;18.446;2023-04-25T13:23:24;0.90;;;0.90;;
17390;SDS011;8813;54.444;18.446;2023-04-25T13:25:52;0.70;;;0.70;;
17390;SDS011;8813;54.444;18.446;2023-04-25T13:28:20;0.80;;;0.80;;
17390;SDS011;8813;54.444;18.446;2023-04-25T13:30:47;1.02;;;1.02;;
17390;SDS011;8813;54.444;18.446;2023-04-25T13:33:14;0.90;;;0.90;;
17390;SDS011;8813;54.444;18.446;2023-04-25T13:35:43;0.80;;;0.80;;
17390;SDS011;8813;54.444;18.446;2023-04-25T13:38:12;1.40;;;1.40;;
17390;SDS011;8813;54.444;18.446;2023-04-25T13:40:39;1.40;;;1.40;;
17390;SDS011;8813;54.444;18.446;2023-04-25T13:43:06;1.30;;;1.20;;
17390;SDS011;8813;54.444;18.446;2023-04-25T13:45:33;1.00;;;1.00;;
17390;SDS011;8813;54.444;18.446;2023-04-25T13:48:00;1.27;;;1.27;;
17390;SDS011;8813;54.444;18.446;2023-04-25T13:50:27;1.02;;;1.02;;
17390;SDS011;8813;54.444;18.446;2023-04-25T13:52:56;1.20;;;1.20;;
17390;SDS011;8813;54.444;18.446;2023-04-25T13:55:23;3.90;;;1.50;;
17390;SDS011;8813;54.444;18.446;2023-04-25T13:57:50;0.80;;;0.80;;
17390;SDS011;8813;54.444;18.446;2023-04-25T14:00:17;1.10;;;1.10;;
17390;SDS011;8813;54.444;18.446;2023-04-25T14:02:45;0.90;;;0.90;;
17390;SDS011;8813;54.444;18.446;2023-04-25T14:05:12;0.90;;;0.90;;
17390;SDS011;8813;54.444;18.446;2023-04-25T14:07:39;1.48;;;1.48;;
17390;SDS011;8813;54.444;18.446;2023-04-25T14:10:08;0.80;;;0.80;;
17390;SDS011;8813;54.444;18.446;2023-04-25T14:12:35;1.50;;;1.50;;
17390;SDS011;8813;54.444;18.446;2023-04-25T14:15:02;0.90;;;0.90;;
17390;SDS011;8813;54.444;18.446;2023-04-25T14:17:30;0.90;;;0.90;;
17390;SDS011;8813;54.444;18.446;2023-04-25T14:19:57;0.90;;;0.90;;
17390;SDS011;8813;54.444;18.446;2023-04-25T14:22:23;1.00;;;1.00;;
17390;SDS011;8813;54.444;18.446;2023-04-25T14:24:51;0.90;;;0.90;;
17390;SDS011;8813;54.444;18.446;2023-04-25T14:27:19;0.90;;;0.90;;
17390;SDS011;8813;54.444;18.446;2023-04-25T14:29:46;1.10;;;1.10;;
17390;SDS011;8813;54.444;18.446;2023-04-25T14:32:13;1.00;;;1.00;;
17390;SDS011;8813;54.444;18.446;2023-04-25T14:34:40;1.00;;;1.00;;
17390;SDS011;8813;54.444;18.446;2023-04-25T14:37:07;1.00;;;1.00;;
17390;SDS011;8813;54.444;18.446;2023-04-25T14:39:34;1.15;;;1.15;;
17390;SDS011;8813;54.444;18.446;2023-04-25T14:42:02;0.90;;;0.90;;
17390;SDS011;8813;54.444;18.446;2023-04-25T14:44:30;0.80;;;0.80;;
17390;SDS011;8813;54.444;18.446;2023-04-25T14:46:57;1.10;;;1.10;;
17390;SDS011;8813;54.444;18.446;2023-04-25T14:49:24;2.03;;;1.95;;
17390;SDS011;8813;54.444;18.446;2023-04-25T14:51:51;1.10;;;1.10;;